createdAt,value
2022-10-07T00:00:30.283Z,85.99
2022-10-07T00:01:32.097Z,86.37
2022-10-07T00:02:33.990Z,86.43
2022-10-07T00:03:36.262Z,86.77
2022-10-07T00:04:38.053Z,86.81
2022-10-07T00:05:39.845Z,87.54
2022-10-07T00:06:41.636Z,87.33
2022-10-07T00:07:43.671Z,87.53
2022-10-07T00:08:52.723Z,87.17
2022-10-07T00:09:54.542Z,86.86
2022-10-07T00:10:56.336Z,87.04
2022-10-07T00:12:00.236Z,87.52
2022-10-07T00:13:02.660Z,87.85
2022-10-07T00:14:05.202Z,87.65
2022-10-07T00:15:07.215Z,88.53
2022-10-07T00:16:10.895Z,88.55
2022-10-07T00:17:12.850Z,88.23
2022-10-07T00:18:14.800Z,88.27
2022-10-07T00:19:16.667Z,88.12
2022-10-07T00:20:18.475Z,87.51
2022-10-07T00:21:20.461Z,87.95
2022-10-07T00:22:22.286Z,87.79
2022-10-07T00:23:24.165Z,87.25
2022-10-07T00:24:25.940Z,87.58
2022-10-07T00:25:27.726Z,87.48
2022-10-07T00:26:31.292Z,87.40
2022-10-07T00:27:33.063Z,87.76
2022-10-07T00:28:35.479Z,87.49
2022-10-07T00:29:37.380Z,87.14
2022-10-07T00:30:39.180Z,87.36
2022-10-07T00:31:41.958Z,87.30
2022-10-07T00:32:43.916Z,88.17
2022-10-07T00:33:45.773Z,88.16
2022-10-07T00:34:47.602Z,88.19
2022-10-07T00:35:49.354Z,88.03
2022-10-07T00:36:51.265Z,87.60
2022-10-07T00:37:53.083Z,87.84
2022-10-07T00:38:56.565Z,87.25
2022-10-07T00:39:58.462Z,87.07
2022-10-07T00:41:00.250Z,87.74
2022-10-07T00:42:02.003Z,87.62
2022-10-07T00:43:18.893Z,87.39
2022-10-07T00:44:36.101Z,87.73
2022-10-07T00:45:37.962Z,87.70
2022-10-07T00:46:40.483Z,87.34
2022-10-07T00:47:45.730Z,87.57
2022-10-07T00:48:48.632Z,87.01
2022-10-07T00:50:02.830Z,87.19
2022-10-07T00:51:04.794Z,86.60
2022-10-07T00:52:06.668Z,87.10
2022-10-07T00:53:10.089Z,87.35
2022-10-07T00:54:14.714Z,87.95
2022-10-07T00:55:18.569Z,87.56
2022-10-07T00:56:20.369Z,87.17
2022-10-07T00:57:26.892Z,87.36
2022-10-07T00:58:33.741Z,87.44
2022-10-07T00:59:35.795Z,87.45
2022-10-07T01:00:39.544Z,87.04
2022-10-07T01:01:42.492Z,87.04
2022-10-07T01:02:45.567Z,86.96
2022-10-07T01:03:48.286Z,87.16
2022-10-07T01:04:51.606Z,87.41
2022-10-07T01:05:53.423Z,87.61
2022-10-07T01:06:55.452Z,87.80
2022-10-07T01:07:59.395Z,87.81
2022-10-07T01:09:01.417Z,88.08
2022-10-07T01:10:03.963Z,87.39
2022-10-07T01:11:14.317Z,87.95
2022-10-07T01:12:24.339Z,88.38
2022-10-07T01:13:32.753Z,87.74
2022-10-07T01:14:42.114Z,88.00
2022-10-07T01:15:48.767Z,88.16
2022-10-07T01:17:08.037Z,88.64
2022-10-07T01:18:35.825Z,88.47
2022-10-07T01:19:43.421Z,88.14
2022-10-07T01:20:53.913Z,88.25
2022-10-07T01:22:11.942Z,88.26
2022-10-07T01:23:16.816Z,88.24
2022-10-07T01:24:38.773Z,88.33
2022-10-07T01:25:47.122Z,88.30
2022-10-07T01:26:52.132Z,87.96
2022-10-07T01:27:56.824Z,87.97
2022-10-07T01:29:04.626Z,87.79
2022-10-07T01:30:07.952Z,88.06
2022-10-07T01:31:12.455Z,88.07
2022-10-07T01:32:20.882Z,87.95
2022-10-07T01:33:28.012Z,88.37
2022-10-07T01:34:30.401Z,87.96
2022-10-07T01:35:36.885Z,87.95
2022-10-07T01:36:38.632Z,87.92
2022-10-07T01:37:43.772Z,88.17
2022-10-07T01:38:52.375Z,87.97
2022-10-07T01:39:56.708Z,88.38
2022-10-07T01:41:04.664Z,88.33
2022-10-07T01:42:06.691Z,88.57
2022-10-07T01:43:08.678Z,87.95
2022-10-07T01:44:12.174Z,88.44
2022-10-07T01:45:17.460Z,88.16
2022-10-07T01:46:23.637Z,88.32
2022-10-07T01:47:26.145Z,87.96
2022-10-07T01:48:28.129Z,88.09
2022-10-07T01:49:30.023Z,87.87
2022-10-07T01:50:32.036Z,88.07
2022-10-07T01:51:35.791Z,88.54
2022-10-07T01:53:12.731Z,88.06
2022-10-07T01:54:34.757Z,87.96
2022-10-07T01:55:50.649Z,88.09
2022-10-07T01:57:04.518Z,88.21
2022-10-07T01:58:09.255Z,88.04
2022-10-07T01:59:30.386Z,87.77
2022-10-07T02:00:34.348Z,87.80
2022-10-07T02:01:41.497Z,87.92
2022-10-07T02:02:56.787Z,88.17
2022-10-07T02:04:23.059Z,88.32
2022-10-07T02:05:37.046Z,87.86
2022-10-07T02:06:45.001Z,87.58
2022-10-07T02:08:00.280Z,87.87
2022-10-07T02:09:04.524Z,88.21
2022-10-07T02:10:24.173Z,88.43
2022-10-07T02:11:31.149Z,87.73
2022-10-07T02:12:53.937Z,88.21
2022-10-07T02:14:00.387Z,88.05
2022-10-07T02:15:15.835Z,87.85
2022-10-07T02:16:36.488Z,87.71
2022-10-07T02:17:43.009Z,87.38
2022-10-07T02:18:48.635Z,87.20
2022-10-07T02:19:56.793Z,87.46
2022-10-07T02:20:59.731Z,87.60
2022-10-07T02:22:04.772Z,88.09
2022-10-07T02:23:08.940Z,88.28
2022-10-07T02:24:11.652Z,88.07
2022-10-07T02:25:15.574Z,88.52
2022-10-07T02:26:19.712Z,87.91
2022-10-07T02:27:25.473Z,88.00
2022-10-07T02:28:28.503Z,88.52
2022-10-07T02:29:34.317Z,88.41
2022-10-07T02:30:36.630Z,88.69
2022-10-07T02:31:41.712Z,88.44
2022-10-07T02:32:46.793Z,88.52
2022-10-07T02:33:51.355Z,88.58
2022-10-07T02:34:55.264Z,88.29
2022-10-07T02:36:02.238Z,88.37
2022-10-07T02:37:10.579Z,88.57
2022-10-07T02:38:15.059Z,87.86
2022-10-07T02:39:17.324Z,88.41
2022-10-07T02:40:19.254Z,89.04
2022-10-07T02:41:42.598Z,88.72
2022-10-07T02:42:52.647Z,89.05
2022-10-07T02:43:57.961Z,88.87
2022-10-07T02:45:11.492Z,89.08
2022-10-07T02:46:22.800Z,89.08
2022-10-07T02:47:36.418Z,88.92
2022-10-07T02:48:42.355Z,88.79
2022-10-07T02:49:47.011Z,89.37
2022-10-07T02:50:51.287Z,88.97
2022-10-07T02:52:05.697Z,88.86
2022-10-07T02:53:08.498Z,88.93
2022-10-07T02:54:11.358Z,88.19
2022-10-07T02:55:16.375Z,87.99
2022-10-07T02:56:20.885Z,87.94
2022-10-07T02:57:25.054Z,88.02
2022-10-07T02:58:27.043Z,88.39
2022-10-07T02:59:30.585Z,87.92
2022-10-07T03:00:35.004Z,88.44
2022-10-07T03:01:42.543Z,87.86
2022-10-07T03:03:05.189Z,87.69
2022-10-07T03:04:07.451Z,87.71
2022-10-07T03:05:09.662Z,88.00
2022-10-07T03:06:14.468Z,87.86
2022-10-07T03:07:17.265Z,88.43
2022-10-07T03:08:19.738Z,88.06
2022-10-07T03:09:21.720Z,88.20
2022-10-07T03:10:23.612Z,88.38
2022-10-07T03:11:25.416Z,88.26
2022-10-07T03:12:29.163Z,88.34
2022-10-07T03:13:31.507Z,88.51
2022-10-07T03:14:36.030Z,88.45
2022-10-07T03:15:42.334Z,88.06
2022-10-07T03:16:44.490Z,88.00
2022-10-07T03:17:46.807Z,87.92
2022-10-07T03:18:49.336Z,88.24
2022-10-07T03:19:51.125Z,87.94
2022-10-07T03:20:56.659Z,87.95
2022-10-07T03:21:58.430Z,88.23
2022-10-07T03:23:00.778Z,88.10
2022-10-07T03:24:05.143Z,88.29
2022-10-07T03:25:07.201Z,88.46
2022-10-07T03:26:09.018Z,88.54
2022-10-07T03:27:10.801Z,88.32
2022-10-07T03:28:14.318Z,88.34
2022-10-07T03:29:16.217Z,88.02
2022-10-07T03:30:24.245Z,88.21
2022-10-07T03:31:27.857Z,88.52
2022-10-07T03:32:30.181Z,87.86
2022-10-07T03:33:32.077Z,88.11
2022-10-07T03:34:33.892Z,88.40
2022-10-07T03:35:35.674Z,87.90
2022-10-07T03:36:37.427Z,88.26
2022-10-07T03:37:39.278Z,87.85
2022-10-07T03:38:41.090Z,87.89
2022-10-07T03:39:42.886Z,87.90
2022-10-07T03:40:44.823Z,87.88
2022-10-07T03:41:49.150Z,88.20
2022-10-07T03:42:50.982Z,87.97
2022-10-07T03:43:52.930Z,87.90
2022-10-07T03:44:54.688Z,87.61
2022-10-07T03:46:00.637Z,87.75
2022-10-07T03:47:07.591Z,87.89
2022-10-07T03:48:12.373Z,87.66
2022-10-07T03:49:14.336Z,88.29
2022-10-07T03:50:16.180Z,88.08
2022-10-07T03:51:18.019Z,87.67
2022-10-07T03:52:19.824Z,87.66
2022-10-07T03:53:22.470Z,87.78
2022-10-07T03:54:24.191Z,88.16
2022-10-07T03:55:25.975Z,88.36
2022-10-07T03:56:27.836Z,88.46
2022-10-07T03:57:48.195Z,87.99
2022-10-07T03:58:50.094Z,88.32
2022-10-07T03:59:53.829Z,87.91
2022-10-07T04:01:09.345Z,87.94
2022-10-07T04:02:11.208Z,87.78
2022-10-07T04:03:13.826Z,88.45
2022-10-07T04:04:15.694Z,88.10
2022-10-07T04:05:18.298Z,88.48
2022-10-07T04:06:20.119Z,88.56
2022-10-07T04:07:23.126Z,88.78
2022-10-07T04:08:28.487Z,88.59
2022-10-07T04:09:30.488Z,88.79
2022-10-07T04:10:33.138Z,88.88
2022-10-07T04:11:34.895Z,88.40
2022-10-07T04:12:36.707Z,88.23
2022-10-07T04:13:38.514Z,88.11
2022-10-07T04:14:40.449Z,88.51
2022-10-07T04:15:42.237Z,88.37
2022-10-07T04:16:44.125Z,88.52
2022-10-07T04:17:47.395Z,88.45
2022-10-07T04:18:49.527Z,88.14
2022-10-07T04:19:51.264Z,87.80
2022-10-07T04:20:53.192Z,88.23
2022-10-07T04:21:54.973Z,88.05
2022-10-07T04:22:56.818Z,88.03
2022-10-07T04:23:58.612Z,88.53
2022-10-07T04:25:18.954Z,88.23
2022-10-07T04:26:20.713Z,88.53
2022-10-07T04:27:46.810Z,87.96
2022-10-07T04:28:44.525Z,88.16
2022-10-07T04:29:46.317Z,88.28
2022-10-07T04:30:54.308Z,88.56
2022-10-07T04:31:58.453Z,88.36
2022-10-07T04:33:01.324Z,88.03
2022-10-07T04:34:03.131Z,87.72
2022-10-07T04:35:06.363Z,88.01
2022-10-07T04:36:09.553Z,88.12
2022-10-07T04:37:11.768Z,88.18
2022-10-07T04:38:15.007Z,87.58
2022-10-07T04:39:16.850Z,88.16
2022-10-07T04:40:20.288Z,88.01
2022-10-07T04:41:22.196Z,87.91
2022-10-07T04:42:42.745Z,88.33
2022-10-07T04:43:44.742Z,87.97
2022-10-07T04:44:46.585Z,88.19
2022-10-07T04:45:49.359Z,87.92
2022-10-07T04:46:52.406Z,87.84
2022-10-07T04:47:54.177Z,87.90
2022-10-07T04:48:56.053Z,87.68
2022-10-07T04:49:57.792Z,88.03
2022-10-07T04:51:08.078Z,87.73
2022-10-07T04:52:10.257Z,87.70
2022-10-07T04:53:14.580Z,87.73
2022-10-07T04:54:16.444Z,87.45
2022-10-07T04:55:18.163Z,87.58
2022-10-07T04:56:20.004Z,87.49
2022-10-07T04:57:21.826Z,87.79
2022-10-07T04:58:23.627Z,88.04
2022-10-07T04:59:28.009Z,87.89
2022-10-07T05:00:32.147Z,87.94
2022-10-07T05:01:33.981Z,88.06
2022-10-07T05:02:36.028Z,87.46
2022-10-07T05:03:39.557Z,87.76
2022-10-07T05:04:41.390Z,87.42
2022-10-07T05:05:47.192Z,87.41
2022-10-07T05:06:48.949Z,87.76
2022-10-07T05:07:53.946Z,87.35
2022-10-07T05:08:57.437Z,87.35
2022-10-07T05:09:59.727Z,87.71
2022-10-07T05:11:02.301Z,87.58
2022-10-07T05:12:05.511Z,88.22
2022-10-07T05:13:08.341Z,88.03
2022-10-07T05:14:10.073Z,88.00
2022-10-07T05:15:12.566Z,88.01
2022-10-07T05:16:14.426Z,88.12
2022-10-07T05:17:16.947Z,87.61
2022-10-07T05:18:19.603Z,87.80
2022-10-07T05:19:21.418Z,87.66
2022-10-07T05:20:23.188Z,88.04
2022-10-07T05:21:24.956Z,88.01
2022-10-07T05:22:26.859Z,88.10
2022-10-07T05:23:31.583Z,88.11
2022-10-07T05:24:33.690Z,88.32
2022-10-07T05:25:35.409Z,88.29
2022-10-07T05:26:37.138Z,88.81
2022-10-07T05:27:39.367Z,88.99
2022-10-07T05:28:42.520Z,89.01
2022-10-07T05:29:44.321Z,89.18
2022-10-07T05:30:46.093Z,88.48
2022-10-07T05:31:49.530Z,88.37
2022-10-07T05:32:51.870Z,88.23
2022-10-07T05:33:54.027Z,88.03
2022-10-07T05:34:55.840Z,88.16
2022-10-07T05:35:58.302Z,87.60
2022-10-07T05:37:00.031Z,87.50
2022-10-07T05:38:02.099Z,87.37
2022-10-07T05:39:03.936Z,87.65
2022-10-07T05:40:05.895Z,87.58
2022-10-07T05:41:08.475Z,87.63
2022-10-07T05:42:13.916Z,87.59
2022-10-07T05:43:15.694Z,87.50
2022-10-07T05:44:17.705Z,87.02
2022-10-07T05:45:19.917Z,87.16
2022-10-07T05:46:23.435Z,87.50
2022-10-07T05:47:34.380Z,87.01
2022-10-07T05:48:39.486Z,87.88
2022-10-07T05:49:41.878Z,87.82
2022-10-07T05:50:47.368Z,87.63
2022-10-07T05:51:49.518Z,87.48
2022-10-07T05:52:52.513Z,87.71
2022-10-07T05:53:57.131Z,87.48
2022-10-07T05:54:58.922Z,87.79
2022-10-07T05:56:04.783Z,87.15
2022-10-07T05:57:06.736Z,87.05
2022-10-07T05:58:08.459Z,87.34
2022-10-07T05:59:10.812Z,86.95
2022-10-07T06:00:12.932Z,87.00
2022-10-07T06:01:16.478Z,87.47
2022-10-07T06:02:19.340Z,87.01
2022-10-07T06:03:22.033Z,87.39
2022-10-07T06:04:23.812Z,87.32
2022-10-07T06:05:25.660Z,86.76
2022-10-07T06:06:27.403Z,87.61
2022-10-07T06:07:29.805Z,87.45
2022-10-07T06:08:31.557Z,87.50
2022-10-07T06:09:51.862Z,87.21
2022-10-07T06:11:12.762Z,87.84
2022-10-07T06:12:32.807Z,87.80
2022-10-07T06:13:35.398Z,87.32
2022-10-07T06:14:37.186Z,87.76
2022-10-07T06:15:38.976Z,87.45
2022-10-07T06:16:40.855Z,87.65
2022-10-07T06:17:45.830Z,87.71
2022-10-07T06:18:50.691Z,87.99
2022-10-07T06:19:52.402Z,88.30
2022-10-07T06:20:58.160Z,88.57
2022-10-07T06:22:00.194Z,88.52
2022-10-07T06:23:01.968Z,88.51
2022-10-07T06:24:03.773Z,88.30
2022-10-07T06:25:05.764Z,88.30
2022-10-07T06:26:08.984Z,88.01
2022-10-07T06:27:10.782Z,88.03
2022-10-07T06:28:14.454Z,87.94
2022-10-07T06:29:16.427Z,88.37
2022-10-07T06:30:18.216Z,88.14
2022-10-07T06:31:25.972Z,87.97
2022-10-07T06:32:29.695Z,87.41
2022-10-07T06:33:31.566Z,87.66
2022-10-07T06:34:33.375Z,87.94
2022-10-07T06:35:35.077Z,88.24
2022-10-07T06:36:36.850Z,87.78
2022-10-07T06:37:39.592Z,88.57
2022-10-07T06:38:51.983Z,88.63
2022-10-07T06:39:58.707Z,88.35
2022-10-07T06:41:02.127Z,88.25
2022-10-07T06:42:03.963Z,88.45
2022-10-07T06:43:06.183Z,88.07
2022-10-07T06:44:08.041Z,88.42
2022-10-07T06:45:10.085Z,88.47
2022-10-07T06:46:19.434Z,87.85
2022-10-07T06:47:21.839Z,88.41
2022-10-07T06:48:23.599Z,87.88
2022-10-07T06:49:25.322Z,88.25
2022-10-07T06:50:27.371Z,87.90
2022-10-07T06:51:29.338Z,88.51
2022-10-07T06:52:31.145Z,88.02
2022-10-07T06:53:33.252Z,88.17
2022-10-07T06:54:35.018Z,88.56
2022-10-07T06:55:38.000Z,88.44
2022-10-07T06:56:39.738Z,88.65
2022-10-07T06:57:45.622Z,88.48
2022-10-07T06:58:58.014Z,88.60
2022-10-07T07:00:01.665Z,88.52
2022-10-07T07:01:03.875Z,88.94
2022-10-07T07:02:05.908Z,88.62
2022-10-07T07:03:07.676Z,88.65
2022-10-07T07:04:09.575Z,88.78
2022-10-07T07:05:14.360Z,88.80
2022-10-07T07:06:16.166Z,88.81
2022-10-07T07:07:17.907Z,88.49
2022-10-07T07:08:19.999Z,88.46
2022-10-07T07:09:23.114Z,88.52
2022-10-07T07:10:24.903Z,88.14
2022-10-07T07:11:41.934Z,87.76
2022-10-07T07:12:44.072Z,87.57
2022-10-07T07:13:46.181Z,87.56
2022-10-07T07:14:48.022Z,87.73
2022-10-07T07:15:59.980Z,87.68
2022-10-07T07:17:01.989Z,87.84
2022-10-07T07:18:05.356Z,87.86
2022-10-07T07:19:08.952Z,88.14
2022-10-07T07:20:10.955Z,88.22
2022-10-07T07:21:12.717Z,87.55
2022-10-07T07:22:14.556Z,87.92
2022-10-07T07:23:16.383Z,87.61
2022-10-07T07:24:18.224Z,88.11
2022-10-07T07:25:20.366Z,87.65
2022-10-07T07:26:22.288Z,88.07
2022-10-07T07:27:24.010Z,88.14
2022-10-07T07:28:25.845Z,87.49
2022-10-07T07:29:27.762Z,87.44
2022-10-07T07:30:30.661Z,87.56
2022-10-07T07:31:33.535Z,87.80
2022-10-07T07:32:35.329Z,87.69
2022-10-07T07:33:38.604Z,87.84
2022-10-07T07:34:40.402Z,87.81
2022-10-07T07:35:43.857Z,87.80
2022-10-07T07:36:47.509Z,87.75
2022-10-07T07:37:49.452Z,87.79
2022-10-07T07:38:53.331Z,87.85
2022-10-07T07:39:55.260Z,87.88
2022-10-07T07:40:57.087Z,87.32
2022-10-07T07:41:58.860Z,87.12
2022-10-07T07:43:00.715Z,86.92
2022-10-07T07:44:03.997Z,87.04
2022-10-07T07:45:05.953Z,86.92
2022-10-07T07:46:07.854Z,86.88
2022-10-07T07:47:09.862Z,87.08
2022-10-07T07:48:13.209Z,87.20
2022-10-07T07:49:16.193Z,87.03
2022-10-07T07:50:21.010Z,86.90
2022-10-07T07:51:23.005Z,87.10
2022-10-07T07:52:26.043Z,86.87
2022-10-07T07:53:27.871Z,86.58
2022-10-07T07:54:29.640Z,86.85
2022-10-07T07:55:31.353Z,86.28
2022-10-07T07:56:33.284Z,86.79
2022-10-07T07:57:35.131Z,87.26
2022-10-07T07:58:36.982Z,87.47
2022-10-07T07:59:39.046Z,87.34
2022-10-07T08:00:40.794Z,87.00
2022-10-07T08:01:44.478Z,87.06
2022-10-07T08:02:46.800Z,87.11
2022-10-07T08:03:49.004Z,86.45
2022-10-07T08:04:50.852Z,86.09
2022-10-07T08:05:52.796Z,86.15
2022-10-07T08:06:55.820Z,86.29
2022-10-07T08:07:58.400Z,85.76
2022-10-07T08:09:00.206Z,84.95
2022-10-07T08:10:02.055Z,85.12
2022-10-07T08:11:10.806Z,85.66
2022-10-07T08:12:14.832Z,86.27
2022-10-07T08:13:16.647Z,86.57
2022-10-07T08:14:18.468Z,86.67
2022-10-07T08:15:20.278Z,86.55
2022-10-07T08:16:23.635Z,86.58
2022-10-07T08:17:25.703Z,86.37
2022-10-07T08:18:27.513Z,86.36
2022-10-07T08:19:32.072Z,86.61
2022-10-07T08:20:33.967Z,86.37
2022-10-07T08:21:35.881Z,86.65
2022-10-07T08:22:37.664Z,86.66
2022-10-07T08:23:40.146Z,86.41
2022-10-07T08:24:43.334Z,86.15
2022-10-07T08:25:45.710Z,86.25
2022-10-07T08:26:48.152Z,86.50
2022-10-07T08:27:50.054Z,86.74
2022-10-07T08:28:51.919Z,86.28
2022-10-07T08:29:53.745Z,86.25
2022-10-07T08:30:56.191Z,86.66
2022-10-07T08:31:57.952Z,86.63
2022-10-07T08:33:01.554Z,86.96
2022-10-07T08:34:04.307Z,87.11
2022-10-07T08:35:06.238Z,87.07
2022-10-07T08:36:08.861Z,87.08
2022-10-07T08:37:10.635Z,86.88
2022-10-07T08:38:14.622Z,86.36
2022-10-07T08:39:16.631Z,85.96
2022-10-07T08:40:18.934Z,85.82
2022-10-07T08:41:20.803Z,86.52
2022-10-07T08:42:33.805Z,86.94
2022-10-07T08:43:38.319Z,86.53
2022-10-07T08:44:44.775Z,86.23
2022-10-07T08:45:47.682Z,86.61
2022-10-07T08:46:59.360Z,86.52
2022-10-07T08:48:03.745Z,86.55
2022-10-07T08:49:08.398Z,86.28
2022-10-07T08:50:19.556Z,87.25
2022-10-07T08:51:25.657Z,87.49
2022-10-07T08:52:34.819Z,87.18
2022-10-07T08:53:37.970Z,86.53
2022-10-07T08:54:39.829Z,86.48
2022-10-07T08:56:01.826Z,86.16
2022-10-07T08:57:23.834Z,85.68
2022-10-07T08:58:25.534Z,86.16
2022-10-07T08:59:34.467Z,86.68
2022-10-07T09:00:59.593Z,86.44
2022-10-07T09:02:01.354Z,85.30
2022-10-07T09:03:11.630Z,85.33
2022-10-07T09:04:20.210Z,85.10
2022-10-07T09:05:22.047Z,84.82
2022-10-07T09:06:28.753Z,84.55
2022-10-07T09:07:32.574Z,84.84
2022-10-07T09:08:37.973Z,84.27
2022-10-07T09:09:43.164Z,84.09
2022-10-07T09:10:48.808Z,83.82
2022-10-07T09:11:51.579Z,83.09
2022-10-07T09:12:54.325Z,83.25
2022-10-07T09:14:18.837Z,83.58
2022-10-07T09:15:29.513Z,83.73
2022-10-07T09:16:38.851Z,82.34
2022-10-07T09:17:43.876Z,81.90
2022-10-07T09:18:51.153Z,82.27
2022-10-07T09:19:58.460Z,82.77
2022-10-07T09:21:00.663Z,83.16
2022-10-07T09:22:17.303Z,82.33
2022-10-07T09:23:20.808Z,82.15
2022-10-07T09:24:24.780Z,82.12
2022-10-07T09:25:27.942Z,82.26
2022-10-07T09:26:31.434Z,81.36
2022-10-07T09:27:33.771Z,81.14
2022-10-07T09:28:36.118Z,80.51
2022-10-07T09:29:38.575Z,80.61
2022-10-07T09:30:41.010Z,80.07
2022-10-07T09:31:42.977Z,80.87
2022-10-07T09:32:46.035Z,81.01
2022-10-07T09:33:50.574Z,80.55
2022-10-07T09:34:52.840Z,80.89
2022-10-07T09:35:59.026Z,79.60
2022-10-07T09:37:11.616Z,79.29
2022-10-07T09:38:13.447Z,80.29
2022-10-07T09:39:24.363Z,81.15
2022-10-07T09:40:34.384Z,80.01
2022-10-07T09:41:38.985Z,79.25
2022-10-07T09:42:46.023Z,79.16
2022-10-07T09:43:54.340Z,78.83
2022-10-07T09:44:58.119Z,78.64
2022-10-07T09:46:01.221Z,78.42
2022-10-07T09:47:16.691Z,78.85
2022-10-07T09:48:22.352Z,78.60
2022-10-07T09:49:31.193Z,77.75
2022-10-07T09:50:38.162Z,78.33
2022-10-07T09:51:40.554Z,76.99
2022-10-07T09:52:54.994Z,76.35
2022-10-07T09:53:58.113Z,77.44
2022-10-07T09:55:22.980Z,76.89
2022-10-07T09:56:37.026Z,76.24
2022-10-07T09:57:40.634Z,76.28
2022-10-07T09:58:42.496Z,75.89
2022-10-07T09:59:44.229Z,76.27
2022-10-07T10:00:47.130Z,75.62
2022-10-07T10:01:59.962Z,77.00
2022-10-07T10:03:05.799Z,76.04
2022-10-07T10:04:16.630Z,76.22
2022-10-07T10:05:31.971Z,76.30
2022-10-07T10:06:33.958Z,75.70
2022-10-07T10:07:37.684Z,75.71
2022-10-07T10:08:42.089Z,75.86
2022-10-07T10:09:54.537Z,74.07
2022-10-07T10:10:57.857Z,74.64
2022-10-07T10:12:02.796Z,74.72
2022-10-07T10:13:06.179Z,74.71
2022-10-07T10:14:37.468Z,73.34
2022-10-07T10:15:41.370Z,73.71
2022-10-07T10:16:46.772Z,73.87
2022-10-07T10:17:48.882Z,72.97
2022-10-07T10:18:59.166Z,72.49
2022-10-07T10:20:19.633Z,72.49
2022-10-07T10:21:30.113Z,71.93
2022-10-07T10:22:31.897Z,72.20
2022-10-07T10:23:38.549Z,72.59
2022-10-07T10:24:58.880Z,71.27
2022-10-07T10:26:32.729Z,71.34
2022-10-07T10:27:41.884Z,71.94
2022-10-07T10:28:54.123Z,71.50
2022-10-07T10:29:58.742Z,72.09
2022-10-07T10:31:04.174Z,71.85
2022-10-07T10:32:05.853Z,71.54
2022-10-07T10:33:15.981Z,71.58
2022-10-07T10:34:18.326Z,70.70
2022-10-07T10:35:28.972Z,70.73
2022-10-07T10:36:33.192Z,71.05
2022-10-07T10:37:42.603Z,70.45
2022-10-07T10:39:10.878Z,71.14
2022-10-07T10:40:31.025Z,71.78
2022-10-07T10:41:37.753Z,71.68
2022-10-07T10:42:58.629Z,68.56
2022-10-07T10:44:20.639Z,69.51
2022-10-07T10:45:46.597Z,69.43
2022-10-07T10:46:57.649Z,67.96
2022-10-07T10:48:12.802Z,68.22
2022-10-07T10:49:27.560Z,69.43
2022-10-07T10:50:29.309Z,68.20
2022-10-07T10:51:51.371Z,68.76
2022-10-07T10:53:02.350Z,67.86
2022-10-07T10:54:14.992Z,69.30
2022-10-07T10:55:30.100Z,66.90
2022-10-07T10:56:50.406Z,68.67
2022-10-07T10:58:18.531Z,67.38
2022-10-07T10:59:38.377Z,67.89
2022-10-07T11:00:46.411Z,67.71
2022-10-07T11:01:52.849Z,68.93
2022-10-07T11:03:01.031Z,69.01
2022-10-07T11:04:34.848Z,67.91
2022-10-07T11:05:40.619Z,67.05
2022-10-07T11:06:45.306Z,67.28
2022-10-07T11:08:08.799Z,67.98
2022-10-07T11:09:15.894Z,68.50
2022-10-07T11:10:46.899Z,67.78
2022-10-07T11:11:49.400Z,66.52
2022-10-07T11:12:55.048Z,67.15
2022-10-07T11:13:59.374Z,66.17
2022-10-07T11:15:07.215Z,66.32
2022-10-07T11:16:12.177Z,65.51
2022-10-07T11:17:16.242Z,66.56
2022-10-07T11:18:27.502Z,66.86
2022-10-07T11:19:38.054Z,66.60
2022-10-07T11:20:48.332Z,66.28
2022-10-07T11:21:51.183Z,64.53
2022-10-07T11:22:57.413Z,65.82
2022-10-07T11:24:04.039Z,66.54
2022-10-07T11:25:10.143Z,66.69
2022-10-07T11:26:15.839Z,65.95
2022-10-07T11:27:21.352Z,66.07
2022-10-07T11:28:26.235Z,65.65
2022-10-07T11:29:39.892Z,63.87
2022-10-07T11:30:45.379Z,65.08
2022-10-07T11:32:10.246Z,62.89
2022-10-07T11:33:16.898Z,63.01
2022-10-07T11:34:21.988Z,62.93
2022-10-07T11:35:26.357Z,63.88
2022-10-07T11:36:46.497Z,63.65
2022-10-07T11:37:54.919Z,63.35
2022-10-07T11:38:56.608Z,64.10
2022-10-07T11:39:58.406Z,63.61
2022-10-07T11:41:03.904Z,62.11
2022-10-07T11:42:17.670Z,64.15
2022-10-07T11:43:25.676Z,65.31
2022-10-07T11:44:42.120Z,64.54
2022-10-07T11:45:50.411Z,64.80
2022-10-07T11:46:54.135Z,63.70
2022-10-07T11:48:19.311Z,64.25
2022-10-07T11:49:23.859Z,63.70
2022-10-07T11:50:33.465Z,64.66
2022-10-07T11:51:38.413Z,63.46
2022-10-07T11:52:42.170Z,63.35
2022-10-07T11:53:44.769Z,62.44
2022-10-07T11:55:04.975Z,62.15
2022-10-07T11:56:17.932Z,62.56
2022-10-07T11:57:22.284Z,61.50
2022-10-07T11:58:26.936Z,62.33
2022-10-07T11:59:34.756Z,62.18
2022-10-07T12:00:39.963Z,62.91
2022-10-07T12:01:47.539Z,60.48
2022-10-07T12:02:49.962Z,62.90
2022-10-07T12:03:53.193Z,63.10
2022-10-07T12:04:59.823Z,63.30
2022-10-07T12:06:10.463Z,61.34
2022-10-07T12:07:35.024Z,62.31
2022-10-07T12:08:38.783Z,62.22
2022-10-07T12:09:52.739Z,62.42
2022-10-07T12:10:55.824Z,61.93
2022-10-07T12:11:57.712Z,62.51
2022-10-07T12:13:00.952Z,61.26
2022-10-07T12:14:32.219Z,61.99
2022-10-07T12:15:33.923Z,61.26
2022-10-07T12:16:35.733Z,61.81
2022-10-07T12:17:37.538Z,61.40
2022-10-07T12:18:39.265Z,62.88
2022-10-07T12:19:41.146Z,61.73
2022-10-07T12:20:53.125Z,61.47
2022-10-07T12:22:00.858Z,62.69
2022-10-07T12:23:20.990Z,61.43
2022-10-07T12:24:22.771Z,61.92
2022-10-07T12:25:29.489Z,62.12
2022-10-07T12:26:31.286Z,62.15
2022-10-07T12:27:34.431Z,62.73
2022-10-07T12:28:42.130Z,63.66
2022-10-07T12:29:48.671Z,62.92
2022-10-07T12:30:52.342Z,61.99
2022-10-07T12:31:54.176Z,60.52
2022-10-07T12:32:57.106Z,60.99
2022-10-07T12:33:59.745Z,63.04
2022-10-07T12:35:21.482Z,63.40
2022-10-07T12:36:24.001Z,62.41
2022-10-07T12:37:40.750Z,61.23
2022-10-07T12:38:42.858Z,62.29
2022-10-07T12:39:44.682Z,63.38
2022-10-07T12:40:49.058Z,63.59
2022-10-07T12:41:51.268Z,63.78
2022-10-07T12:43:04.200Z,60.72
2022-10-07T12:44:08.760Z,63.64
2022-10-07T12:45:11.048Z,62.57
2022-10-07T12:46:18.829Z,62.62
2022-10-07T12:47:29.311Z,63.22
2022-10-07T12:48:34.163Z,62.79
2022-10-07T12:49:37.367Z,62.76
2022-10-07T12:50:40.102Z,62.59
2022-10-07T12:51:44.308Z,63.41
2022-10-07T12:52:53.577Z,63.17
2022-10-07T12:53:57.958Z,63.73
2022-10-07T12:55:17.152Z,63.65
2022-10-07T12:56:24.538Z,62.63
2022-10-07T12:57:31.693Z,62.54
2022-10-07T12:59:10.454Z,62.71
2022-10-07T13:00:18.144Z,62.26
2022-10-07T13:01:46.747Z,62.44
2022-10-07T13:03:01.281Z,61.41
2022-10-07T13:04:32.680Z,60.91
2022-10-07T13:05:34.408Z,60.93
2022-10-07T13:06:54.778Z,60.32
2022-10-07T13:07:56.446Z,60.82
2022-10-07T13:09:21.779Z,61.32
2022-10-07T13:10:35.496Z,61.42
2022-10-07T13:11:56.069Z,60.99
2022-10-07T13:13:06.968Z,60.72
2022-10-07T13:14:18.728Z,62.03
2022-10-07T13:15:28.182Z,61.55
2022-10-07T13:16:35.722Z,62.43
2022-10-07T13:17:47.504Z,59.89
2022-10-07T13:18:49.200Z,59.93
2022-10-07T13:20:09.332Z,61.83
2022-10-07T13:21:14.001Z,61.10
2022-10-07T13:22:17.049Z,60.33
2022-10-07T13:23:26.075Z,60.74
2022-10-07T13:24:29.277Z,60.47
2022-10-07T13:25:31.923Z,61.34
2022-10-07T13:26:33.704Z,60.37
2022-10-07T13:27:38.866Z,61.22
2022-10-07T13:28:49.867Z,60.66
2022-10-07T13:29:51.598Z,59.56
2022-10-07T13:30:53.562Z,59.98
2022-10-07T13:32:07.493Z,60.81
2022-10-07T13:33:13.612Z,61.17
2022-10-07T13:34:16.657Z,60.09
2022-10-07T13:35:39.852Z,60.08
2022-10-07T13:36:43.913Z,61.18
2022-10-07T13:37:46.537Z,60.49
2022-10-07T13:38:49.514Z,60.87
2022-10-07T13:39:51.323Z,61.13
2022-10-07T13:41:06.507Z,60.29
2022-10-07T13:42:11.575Z,60.15
2022-10-07T13:43:14.572Z,60.89
2022-10-07T13:44:19.142Z,60.98
2022-10-07T13:45:21.115Z,61.08
2022-10-07T13:46:24.893Z,59.66
2022-10-07T13:47:28.618Z,60.69
2022-10-07T13:48:34.850Z,61.15
2022-10-07T13:49:39.034Z,61.79
2022-10-07T13:50:40.837Z,60.23
2022-10-07T13:51:43.216Z,59.98
2022-10-07T13:52:47.607Z,60.13
2022-10-07T13:53:54.847Z,60.29
2022-10-07T13:54:56.631Z,60.65
2022-10-07T13:56:17.102Z,60.55
2022-10-07T13:57:21.527Z,59.33
2022-10-07T13:58:23.589Z,59.34
2022-10-07T13:59:25.967Z,58.77
2022-10-07T14:00:28.737Z,60.07
2022-10-07T14:01:32.349Z,59.28
2022-10-07T14:02:39.247Z,58.94
2022-10-07T14:04:01.187Z,58.67
2022-10-07T14:05:05.093Z,58.82
2022-10-07T14:06:27.317Z,57.92
2022-10-07T14:07:29.442Z,56.84
2022-10-07T14:08:31.668Z,56.91